createdAt,value
2022-11-04T00:00:50.250Z,99223.53
2022-11-04T00:01:51.971Z,99216.16
2022-11-04T00:02:53.708Z,99207.66
2022-11-04T00:03:55.369Z,99217.09
2022-11-04T00:04:56.831Z,99213.66
2022-11-04T00:06:00.957Z,99216.41
2022-11-04T00:07:22.383Z,99214.00
2022-11-04T00:08:23.875Z,99204.94
2022-11-04T00:09:28.823Z,99202.66
2022-11-04T00:10:50.653Z,99204.53
2022-11-04T00:12:11.056Z,99205.38
2022-11-04T00:13:12.665Z,99207.22
2022-11-04T00:14:14.425Z,99213.25
2022-11-04T00:15:34.450Z,99206.59
2022-11-04T00:16:54.701Z,99211.19
2022-11-04T00:17:56.306Z,99203.28
2022-11-04T00:18:57.793Z,99206.59
2022-11-04T00:20:17.937Z,99205.47
2022-11-04T00:21:37.873Z,99206.81
2022-11-04T00:22:58.754Z,99198.09
2022-11-04T00:24:18.723Z,99204.34
2022-11-04T00:25:38.639Z,99207.44
2022-11-04T00:26:58.785Z,99203.50
2022-11-04T00:28:25.870Z,99209.31
2022-11-04T00:29:27.310Z,99209.13
2022-11-04T00:30:28.854Z,99212.44
2022-11-04T00:31:48.857Z,99218.63
2022-11-04T00:33:08.750Z,99207.44
2022-11-04T00:34:10.311Z,99204.34
2022-11-04T00:35:11.947Z,99212.00
2022-11-04T00:36:13.449Z,99197.34
2022-11-04T00:37:14.924Z,99198.38
2022-11-04T00:38:16.851Z,99208.44
2022-11-04T00:39:18.381Z,99205.53
2022-11-04T00:40:19.857Z,99211.34
2022-11-04T00:41:28.045Z,99205.09
2022-11-04T00:42:30.048Z,99218.28
2022-11-04T00:43:31.597Z,99221.31
2022-11-04T00:44:33.057Z,99216.84
2022-11-04T00:45:34.528Z,99215.72
2022-11-04T00:46:36.085Z,99229.59
2022-11-04T00:47:37.574Z,99216.72
2022-11-04T00:48:39.070Z,99228.25
2022-11-04T00:49:40.571Z,99240.31
2022-11-04T00:50:42.218Z,99238.34
2022-11-04T00:51:43.744Z,99249.44
2022-11-04T00:52:45.173Z,99241.88
2022-11-04T00:53:46.750Z,99232.09
2022-11-04T00:54:48.202Z,99243.63
2022-11-04T00:55:49.685Z,99242.19
2022-11-04T00:56:51.191Z,99248.09
2022-11-04T00:57:52.686Z,99245.00
2022-11-04T00:58:54.131Z,99243.53
2022-11-04T00:59:55.616Z,99235.00
2022-11-04T01:00:57.103Z,99231.53
2022-11-04T01:01:58.733Z,99236.00
2022-11-04T01:03:00.975Z,99237.06
2022-11-04T01:04:02.462Z,99237.69
2022-11-04T01:05:03.994Z,99245.25
2022-11-04T01:06:05.698Z,99250.25
2022-11-04T01:07:07.193Z,99260.63
2022-11-04T01:08:08.657Z,99251.59
2022-11-04T01:09:10.898Z,99251.25
2022-11-04T01:10:13.020Z,99249.94
2022-11-04T01:11:15.510Z,99246.63
2022-11-04T01:12:17.159Z,99245.47
2022-11-04T01:13:18.630Z,99256.78
2022-11-04T01:14:20.142Z,99257.09
2022-11-04T01:15:21.695Z,99263.22
2022-11-04T01:16:23.508Z,99266.25
2022-11-04T01:17:25.112Z,99260.31
2022-11-04T01:18:26.659Z,99272.22
2022-11-04T01:19:28.150Z,99261.53
2022-11-04T01:20:29.614Z,99259.88
2022-11-04T01:21:31.226Z,99270.25
2022-11-04T01:22:32.761Z,99267.78
2022-11-04T01:23:34.340Z,99260.81
2022-11-04T01:24:35.891Z,99268.41
2022-11-04T01:25:41.274Z,99261.16
2022-11-04T01:26:42.781Z,99259.50
2022-11-04T01:27:44.262Z,99261.16
2022-11-04T01:28:45.752Z,99268.00
2022-11-04T01:29:47.341Z,99256.41
2022-11-04T01:30:48.806Z,99256.41
2022-11-04T01:31:50.257Z,99253.47
2022-11-04T01:32:51.746Z,99264.59
2022-11-04T01:33:53.339Z,99263.03
2022-11-04T01:34:54.850Z,99255.94
2022-11-04T01:35:59.184Z,99271.84
2022-11-04T01:37:00.678Z,99278.16
2022-11-04T01:38:02.191Z,99269.44
2022-11-04T01:39:03.819Z,99267.13
2022-11-04T01:40:05.573Z,99261.53
2022-11-04T01:41:07.237Z,99263.72
2022-11-04T01:42:10.804Z,99265.69
2022-11-04T01:43:16.302Z,99262.56
2022-11-04T01:44:36.774Z,99267.13
2022-11-04T01:45:38.261Z,99272.66
2022-11-04T01:46:46.900Z,99268.19
2022-11-04T01:48:00.630Z,99272.13
2022-11-04T01:49:08.413Z,99266.84
2022-11-04T01:50:16.263Z,99264.88
2022-11-04T01:51:17.832Z,99267.69
2022-11-04T01:52:29.848Z,99259.03
2022-11-04T01:53:34.891Z,99264.56
2022-11-04T01:54:36.379Z,99270.25
2022-11-04T01:55:40.270Z,99266.75
2022-11-04T01:56:41.781Z,99267.38
2022-11-04T01:57:44.099Z,99275.59
2022-11-04T01:58:50.792Z,99277.56
2022-11-04T01:59:52.249Z,99269.66
2022-11-04T02:00:53.867Z,99281.50
2022-11-04T02:01:55.864Z,99267.50
2022-11-04T02:02:59.456Z,99270.94
2022-11-04T02:04:20.133Z,99265.13
2022-11-04T02:05:21.787Z,99253.13
2022-11-04T02:06:23.302Z,99273.25
2022-11-04T02:07:24.843Z,99280.31
2022-11-04T02:08:26.378Z,99285.06
2022-11-04T02:09:28.325Z,99279.16
2022-11-04T02:10:30.349Z,99282.47
2022-11-04T02:11:50.372Z,99281.34
2022-11-04T02:12:51.942Z,99276.75
2022-11-04T02:13:53.450Z,99273.63
2022-11-04T02:14:54.918Z,99272.81
2022-11-04T02:16:14.947Z,99290.47
2022-11-04T02:17:19.198Z,99284.53
2022-11-04T02:18:26.434Z,99294.81
2022-11-04T02:19:27.878Z,99287.97
2022-11-04T02:20:29.301Z,99284.97
2022-11-04T02:21:43.067Z,99289.44
2022-11-04T02:22:44.526Z,99297.72
2022-11-04T02:23:48.786Z,99289.00
2022-11-04T02:25:13.077Z,99293.47
2022-11-04T02:26:36.383Z,99298.47
2022-11-04T02:27:37.969Z,99292.53
2022-11-04T02:28:58.473Z,99288.16
2022-11-04T02:30:18.714Z,99298.34
2022-11-04T02:31:55.698Z,99302.47
2022-11-04T02:33:06.838Z,99306.75
2022-11-04T02:34:14.082Z,99302.28
2022-11-04T02:35:27.451Z,99309.53
2022-11-04T02:36:46.554Z,99301.97
2022-11-04T02:39:00.621Z,99313.81
2022-11-04T02:40:08.049Z,99304.78
2022-11-04T02:41:28.508Z,99313.50
2022-11-04T02:42:36.028Z,99308.72
2022-11-04T02:43:37.518Z,99300.63
2022-11-04T02:44:41.234Z,99311.34
2022-11-04T02:45:44.158Z,99303.22
2022-11-04T02:46:48.415Z,99312.47
2022-11-04T02:47:51.086Z,99305.22
2022-11-04T02:48:52.540Z,99301.25
2022-11-04T02:50:14.400Z,99301.78
2022-11-04T02:51:19.943Z,99291.78
2022-11-04T02:52:35.666Z,99295.75
2022-11-04T02:53:39.009Z,99301.47
2022-11-04T02:54:44.763Z,99296.38
2022-11-04T02:55:47.193Z,99299.81
2022-11-04T02:56:50.014Z,99292.63
2022-11-04T02:57:51.898Z,99297.22
2022-11-04T02:58:57.589Z,99296.38
2022-11-04T03:00:03.265Z,99300.97
2022-11-04T03:01:05.209Z,99300.22
2022-11-04T03:02:07.969Z,99302.00
2022-11-04T03:03:11.577Z,99309.25
2022-11-04T03:04:16.209Z,99308.63
2022-11-04T03:05:18.461Z,99312.06
2022-11-04T03:06:21.140Z,99320.59
2022-11-04T03:07:24.387Z,99310.81
2022-11-04T03:08:27.015Z,99316.97
2022-11-04T03:09:28.517Z,99322.25
2022-11-04T03:10:37.076Z,99327.84
2022-11-04T03:11:38.502Z,99329.50
2022-11-04T03:12:40.894Z,99332.38
2022-11-04T03:13:44.450Z,99339.22
2022-11-04T03:14:50.150Z,99324.69
2022-11-04T03:15:52.883Z,99331.31
2022-11-04T03:16:54.786Z,99330.72
2022-11-04T03:18:14.807Z,99334.13
2022-11-04T03:19:17.015Z,99338.63
2022-11-04T03:20:20.478Z,99338.38
2022-11-04T03:21:22.034Z,99338.69
2022-11-04T03:22:24.128Z,99327.50
2022-11-04T03:23:25.861Z,99326.34
2022-11-04T03:24:27.320Z,99328.00
2022-11-04T03:25:30.846Z,99341.94
2022-11-04T03:26:34.880Z,99335.81
2022-11-04T03:27:41.940Z,99335.91
2022-11-04T03:28:43.637Z,99353.16
2022-11-04T03:31:26.317Z,99341.34
2022-11-04T03:32:47.104Z,99341.44
2022-11-04T03:33:49.869Z,99339.69
2022-11-04T03:34:51.377Z,99328.47
2022-11-04T03:35:52.890Z,99339.69
2022-11-04T03:36:54.370Z,99340.28
2022-11-04T03:37:55.874Z,99339.22
2022-11-04T03:38:57.391Z,99334.75
2022-11-04T03:39:58.841Z,99342.66
2022-11-04T03:41:00.336Z,99340.97
2022-11-04T03:42:02.511Z,99346.66
2022-11-04T03:43:11.163Z,99343.34
2022-11-04T03:44:12.870Z,99353.50
2022-11-04T03:45:14.305Z,99348.22
2022-11-04T03:46:15.823Z,99345.94
2022-11-04T03:47:17.637Z,99356.63
2022-11-04T03:48:19.177Z,99354.66
2022-11-04T03:49:23.424Z,99353.50
2022-11-04T03:50:31.624Z,99351.03
2022-11-04T03:51:33.175Z,99354.03
2022-11-04T03:52:35.790Z,99356.31
2022-11-04T03:53:37.284Z,99349.38
2022-11-04T03:54:38.780Z,99347.41
2022-11-04T03:55:43.887Z,99351.63
2022-11-04T03:56:53.025Z,99344.78
2022-11-04T03:58:04.491Z,99347.56
2022-11-04T03:59:12.219Z,99341.16
2022-11-04T04:00:14.209Z,99333.38
2022-11-04T04:01:37.587Z,99341.66
2022-11-04T04:02:47.903Z,99336.06
2022-11-04T04:03:54.586Z,99320.91
2022-11-04T04:04:57.066Z,99329.31
2022-11-04T04:06:09.640Z,99329.84
2022-11-04T04:07:12.512Z,99332.44
2022-11-04T04:08:13.950Z,99332.75
2022-11-04T04:09:19.076Z,99328.97
2022-11-04T04:10:49.863Z,99339.78
2022-11-04T04:11:51.402Z,99349.84
2022-11-04T04:12:53.452Z,99355.53
2022-11-04T04:13:56.857Z,99362.38
2022-11-04T04:15:00.647Z,99355.63
2022-11-04T04:16:08.034Z,99361.22
2022-11-04T04:17:21.854Z,99356.78
2022-11-04T04:18:25.584Z,99345.88
2022-11-04T04:19:27.021Z,99343.06
2022-11-04T04:20:28.706Z,99337.25
2022-11-04T04:21:31.674Z,99327.69
2022-11-04T04:22:37.282Z,99327.41
2022-11-04T04:23:57.486Z,99325.97
2022-11-04T04:25:18.476Z,99339.03
2022-11-04T04:26:40.062Z,99339.88
2022-11-04T04:27:43.586Z,99339.13
2022-11-04T04:28:49.966Z,99335.00
2022-11-04T04:29:51.490Z,99339.44
2022-11-04T04:30:57.685Z,99339.97
2022-11-04T04:32:01.794Z,99338.38
2022-11-04T04:33:05.437Z,99338.28
2022-11-04T04:34:06.907Z,99334.72
2022-11-04T04:35:26.886Z,99328.38
2022-11-04T04:36:28.331Z,99334.66
2022-11-04T04:37:29.823Z,99325.53
2022-11-04T04:38:51.098Z,99315.53
2022-11-04T04:40:12.281Z,99321.75
2022-11-04T04:41:33.416Z,99321.53
2022-11-04T04:42:53.526Z,99314.84
2022-11-04T04:44:13.371Z,99319.09
2022-11-04T04:45:19.444Z,99324.78
2022-11-04T04:46:20.913Z,99329.91
2022-11-04T04:47:22.972Z,99327.94
2022-11-04T04:48:24.690Z,99329.31
2022-11-04T04:49:35.053Z,99327.06
2022-11-04T04:50:37.433Z,99319.56
2022-11-04T04:51:39.738Z,99329.91
2022-11-04T04:52:42.045Z,99324.63
2022-11-04T04:53:43.501Z,99326.22
2022-11-04T04:54:45.152Z,99322.50
2022-11-04T04:55:46.634Z,99322.72
2022-11-04T04:56:48.086Z,99323.78
2022-11-04T04:57:49.660Z,99315.16
2022-11-04T04:58:51.112Z,99327.34
2022-11-04T04:59:52.649Z,99329.63
2022-11-04T05:00:54.250Z,99322.94
2022-11-04T05:01:55.863Z,99323.78
2022-11-04T05:02:57.352Z,99323.50
2022-11-04T05:03:58.830Z,99326.88
2022-11-04T05:05:01.336Z,99331.06
2022-11-04T05:06:02.886Z,99337.03
2022-11-04T05:07:04.386Z,99335.97
2022-11-04T05:08:06.939Z,99327.88
2022-11-04T05:09:09.054Z,99329.31
2022-11-04T05:10:11.059Z,99334.31
2022-11-04T05:11:12.608Z,99333.22
2022-11-04T05:12:14.119Z,99328.25
2022-11-04T05:13:28.305Z,99336.72
2022-11-04T05:14:30.020Z,99319.22
2022-11-04T05:15:31.571Z,99333.41
2022-11-04T05:16:38.013Z,99336.94
2022-11-04T05:17:42.013Z,99333.22
2022-11-04T05:18:43.541Z,99339.91
2022-11-04T05:19:44.985Z,99339.28
2022-11-04T05:20:46.418Z,99336.50
2022-11-04T05:21:47.902Z,99334.22
2022-11-04T05:22:49.370Z,99333.09
2022-11-04T05:23:50.873Z,99331.63
2022-11-04T05:24:52.333Z,99331.06
2022-11-04T05:25:53.765Z,99326.50
2022-11-04T05:26:55.251Z,99316.66
2022-11-04T05:27:59.514Z,99312.22
2022-11-04T05:29:01.037Z,99321.97
2022-11-04T05:30:02.710Z,99321.13
2022-11-04T05:31:04.718Z,99321.75
2022-11-04T05:32:06.174Z,99318.13
2022-11-04T05:33:08.098Z,99320.91
2022-11-04T05:34:12.577Z,99314.03
2022-11-04T05:35:14.093Z,99314.63
2022-11-04T05:36:16.033Z,99312.88
2022-11-04T05:37:17.495Z,99312.00
2022-11-04T05:38:18.985Z,99308.28
2022-11-04T05:39:20.497Z,99307.66
2022-11-04T05:40:21.968Z,99304.28
2022-11-04T05:41:26.293Z,99299.19
2022-11-04T05:42:27.777Z,99302.53
2022-11-04T05:43:29.353Z,99289.06
2022-11-04T05:44:30.852Z,99287.38
2022-11-04T05:45:32.344Z,99285.94
2022-11-04T05:46:33.882Z,99283.97
2022-11-04T05:47:35.485Z,99283.66
2022-11-04T05:48:40.504Z,99285.63
2022-11-04T05:49:42.404Z,99276.41
2022-11-04T05:50:43.935Z,99281.19
2022-11-04T05:51:45.393Z,99282.84
2022-11-04T05:52:46.891Z,99278.06
2022-11-04T05:53:48.393Z,99276.94
2022-11-04T05:54:49.835Z,99276.66
2022-11-04T05:55:51.500Z,99269.38
2022-11-04T05:56:52.983Z,99270.75
2022-11-04T05:57:54.522Z,99261.53
2022-11-04T05:58:56.196Z,99282.47
2022-11-04T05:59:57.646Z,99281.31
2022-11-04T06:01:17.878Z,99291.38
2022-11-04T06:02:19.393Z,99292.19
2022-11-04T06:03:21.006Z,99289.91
2022-11-04T06:04:22.664Z,99289.91
2022-11-04T06:05:24.463Z,99291.59
2022-11-04T06:06:26.528Z,99285.47
2022-11-04T06:07:28.067Z,99289.91
2022-11-04T06:08:31.508Z,99291.88
2022-11-04T06:09:41.929Z,99301.13
2022-11-04T06:10:43.553Z,99307.84
2022-11-04T06:11:45.433Z,99307.84
2022-11-04T06:12:46.934Z,99309.81
2022-11-04T06:13:48.585Z,99307.34
2022-11-04T06:14:50.090Z,99310.13
2022-11-04T06:15:51.580Z,99312.09
2022-11-04T06:16:53.138Z,99318.53
2022-11-04T06:17:54.644Z,99318.53
2022-11-04T06:18:59.968Z,99323.59
2022-11-04T06:20:06.494Z,99329.22
2022-11-04T06:21:14.030Z,99321.94
2022-11-04T06:22:15.938Z,99330.66
2022-11-04T06:23:17.415Z,99321.44
2022-11-04T06:24:18.952Z,99321.44
2022-11-04T06:25:20.414Z,99316.94
2022-11-04T06:26:25.379Z,99318.06
2022-11-04T06:27:29.512Z,99324.81
2022-11-04T06:28:30.989Z,99323.25
2022-11-04T06:29:32.647Z,99323.88
2022-11-04T06:30:34.172Z,99324.44
2022-11-04T06:31:35.913Z,99319.69
2022-11-04T06:32:37.377Z,99314.91
2022-11-04T06:33:38.861Z,99318.53
2022-11-04T06:34:40.389Z,99323.88
2022-11-04T06:35:42.347Z,99320.50
2022-11-04T06:36:43.937Z,99338.22
2022-11-04T06:37:45.392Z,99339.16
2022-11-04T06:38:46.936Z,99335.28
2022-11-04T06:39:48.474Z,99334.75
2022-11-04T06:40:49.940Z,99346.47
2022-11-04T06:41:51.896Z,99344.50
2022-11-04T06:42:54.489Z,99345.88
2022-11-04T06:43:56.005Z,99354.78
2022-11-04T06:44:57.454Z,99351.22
2022-11-04T06:45:59.562Z,99349.56
2022-11-04T06:47:01.781Z,99356.59
2022-11-04T06:48:03.338Z,99352.97
2022-11-04T06:49:05.288Z,99356.06
2022-11-04T06:50:07.061Z,99357.53
2022-11-04T06:51:08.498Z,99357.53
2022-11-04T06:52:09.942Z,99362.81
2022-11-04T06:53:11.625Z,99361.16
2022-11-04T06:54:13.310Z,99355.03
2022-11-04T06:55:15.250Z,99360.06
2022-11-04T06:56:16.946Z,99360.63
2022-11-04T06:57:18.384Z,99355.31
2022-11-04T06:58:19.934Z,99363.41
2022-11-04T06:59:21.488Z,99356.13
2022-11-04T07:00:23.030Z,99357.81
2022-11-04T07:01:26.002Z,99352.81
2022-11-04T07:02:27.754Z,99356.75
2022-11-04T07:03:29.961Z,99352.81
2022-11-04T07:04:31.433Z,99361.72
2022-11-04T07:05:33.259Z,99361.72
2022-11-04T07:06:37.247Z,99362.28
2022-11-04T07:07:41.292Z,99363.41
2022-11-04T07:08:42.744Z,99371.19
2022-11-04T07:09:44.271Z,99359.47
2022-11-04T07:10:45.845Z,99361.72
2022-11-04T07:11:47.345Z,99367.09
2022-11-04T07:12:48.877Z,99366.78
2022-11-04T07:13:50.394Z,99362.28
2022-11-04T07:14:52.037Z,99368.22
2022-11-04T07:15:53.630Z,99369.75
2022-11-04T07:16:55.088Z,99371.41
2022-11-04T07:17:56.776Z,99363.84
2022-11-04T07:18:58.291Z,99365.22
2022-11-04T07:20:00.304Z,99375.25
2022-11-04T07:21:04.547Z,99365.44
2022-11-04T07:22:10.281Z,99360.63
2022-11-04T07:23:11.815Z,99368.75
2022-11-04T07:24:13.364Z,99371.81
2022-11-04T07:25:15.112Z,99370.13
2022-11-04T07:26:16.660Z,99355.84
2022-11-04T07:27:18.213Z,99367.88
2022-11-04T07:28:20.155Z,99373.16
2022-11-04T07:29:22.009Z,99368.41
2022-11-04T07:30:23.577Z,99374.53
2022-11-04T07:31:25.516Z,99374.53
2022-11-04T07:32:27.101Z,99378.75
2022-11-04T07:33:28.633Z,99375.34
2022-11-04T07:34:30.196Z,99376.72
2022-11-04T07:35:31.771Z,99382.31
2022-11-04T07:36:33.357Z,99373.59
2022-11-04T07:37:34.958Z,99373.06
2022-11-04T07:38:36.506Z,99380.41
2022-11-04T07:39:37.973Z,99380.13
2022-11-04T07:40:39.525Z,99380.19
2022-11-04T07:41:40.992Z,99382.38
2022-11-04T07:42:42.700Z,99392.50
2022-11-04T07:43:51.152Z,99389.41
2022-11-04T07:44:52.635Z,99390.56
2022-11-04T07:46:04.202Z,99396.69
2022-11-04T07:47:05.909Z,99396.06
2022-11-04T07:48:08.141Z,99393.03
2022-11-04T07:49:09.841Z,99394.22
2022-11-04T07:50:11.879Z,99402.63
2022-11-04T07:51:16.566Z,99400.97
2022-11-04T07:52:18.301Z,99401.63
2022-11-04T07:53:19.849Z,99399.41
2022-11-04T07:54:21.697Z,99393.81
2022-11-04T07:55:26.266Z,99391.81
2022-11-04T07:56:27.883Z,99396.81
2022-11-04T07:57:29.417Z,99398.16
2022-11-04T07:58:31.114Z,99397.03
2022-11-04T07:59:33.787Z,99395.28
2022-11-04T08:00:35.360Z,99397.50
2022-11-04T08:01:37.041Z,99393.28
2022-11-04T08:02:38.820Z,99396.81
2022-11-04T08:03:40.514Z,99394.63
2022-11-04T08:04:42.532Z,99389.25
2022-11-04T08:05:44.101Z,99395.09
2022-11-04T08:06:45.588Z,99384.72
2022-11-04T08:07:47.143Z,99389.72
2022-11-04T08:08:48.687Z,99383.59
2022-11-04T08:09:50.248Z,99378.88
2022-11-04T08:10:54.810Z,99375.81
2022-11-04T08:11:56.275Z,99383.59
2022-11-04T08:12:57.835Z,99372.94
2022-11-04T08:13:59.468Z,99374.81
2022-11-04T08:15:01.154Z,99375.88
2022-11-04T08:16:03.670Z,99378.06
2022-11-04T08:17:05.468Z,99376.31
2022-11-04T08:18:07.183Z,99383.56
2022-11-04T08:19:08.960Z,99379.44
2022-11-04T08:20:10.859Z,99379.13
2022-11-04T08:21:12.561Z,99377.41
2022-11-04T08:22:14.346Z,99377.31
2022-11-04T08:23:16.432Z,99372.84
2022-11-04T08:24:18.085Z,99376.16
2022-11-04T08:25:19.661Z,99370.09
2022-11-04T08:26:23.404Z,99383.22
2022-11-04T08:27:25.374Z,99383.94
2022-11-04T08:28:27.226Z,99382.81
2022-11-04T08:29:28.739Z,99373.47
2022-11-04T08:30:30.268Z,99373.75
2022-11-04T08:31:31.898Z,99375.13
2022-11-04T08:32:33.495Z,99374.66
2022-11-04T08:33:35.884Z,99379.44
2022-11-04T08:34:37.827Z,99377.97
2022-11-04T08:35:41.894Z,99366.72
2022-11-04T08:36:43.521Z,99377.00
2022-11-04T08:37:45.140Z,99371.03
2022-11-04T08:38:46.716Z,99373.41
2022-11-04T08:39:48.338Z,99375.28
2022-11-04T08:40:49.927Z,99371.91
2022-11-04T08:41:53.563Z,99360.28
2022-11-04T08:42:55.230Z,99357.13
2022-11-04T08:44:01.130Z,99360.34
2022-11-04T08:45:02.924Z,99355.78
2022-11-04T08:46:05.226Z,99355.19
2022-11-04T08:47:06.749Z,99360.16
2022-11-04T08:48:08.825Z,99361.44
2022-11-04T08:49:13.861Z,99365.19
2022-11-04T08:50:18.141Z,99365.41
2022-11-04T08:51:20.501Z,99359.72
2022-11-04T08:52:22.124Z,99362.41
2022-11-04T08:53:23.587Z,99355.06
2022-11-04T08:54:25.519Z,99362.84
2022-11-04T08:55:28.996Z,99350.47
2022-11-04T08:56:31.538Z,99362.84
2022-11-04T08:57:33.085Z,99357.75
2022-11-04T08:58:34.588Z,99372.28
2022-11-04T08:59:36.250Z,99366.97
2022-11-04T09:00:37.786Z,99355.44
2022-11-04T09:01:39.534Z,99359.41
2022-11-04T09:02:41.234Z,99355.25
2022-11-04T09:03:42.904Z,99365.81
2022-11-04T09:04:44.524Z,99361.78
2022-11-04T09:05:47.549Z,99360.59
2022-11-04T09:06:51.010Z,99362.25
2022-11-04T09:08:01.851Z,99356.66
2022-11-04T09:09:04.818Z,99362.34
2022-11-04T09:10:06.630Z,99357.25
2022-11-04T09:11:08.526Z,99362.56
2022-11-04T09:12:10.650Z,99355.59
2022-11-04T09:13:12.696Z,99354.75
2022-11-04T09:14:14.706Z,99360.28
2022-11-04T09:15:16.280Z,99356.53
2022-11-04T09:16:18.000Z,99362.09
2022-11-04T09:17:19.598Z,99361.47
2022-11-04T09:18:21.107Z,99359.19
2022-11-04T09:19:22.922Z,99366.97
2022-11-04T09:20:24.533Z,99359.41
2022-11-04T09:21:26.581Z,99368.63
2022-11-04T09:22:28.417Z,99366.88
2022-11-04T09:23:29.943Z,99362.31
2022-11-04T09:24:32.027Z,99362.53
2022-11-04T09:25:33.689Z,99369.06
2022-11-04T09:26:35.255Z,99365.63
2022-11-04T09:27:36.871Z,99365.84
2022-11-04T09:28:38.450Z,99369.69
2022-11-04T09:29:41.210Z,99365.44
2022-11-04T09:30:42.728Z,99376.03
2022-11-04T09:31:44.402Z,99365.63
2022-11-04T09:32:51.495Z,99365.00
2022-11-04T09:33:54.888Z,99359.63
2022-11-04T09:34:56.485Z,99373.09
2022-11-04T09:35:57.975Z,99376.44
2022-11-04T09:36:59.516Z,99372.19
2022-11-04T09:38:01.693Z,99383.28
2022-11-04T09:39:03.319Z,99379.84
2022-11-04T09:40:05.220Z,99379.56
2022-11-04T09:41:12.066Z,99390.97
2022-11-04T09:42:17.625Z,99390.34
2022-11-04T09:43:38.025Z,99398.44
2022-11-04T09:45:19.934Z,99396.78
2022-11-04T09:46:13.428Z,99398.97
2022-11-04T09:47:20.713Z,99401.38
2022-11-04T09:48:26.173Z,99401.88
2022-11-04T09:49:28.494Z,99396.97
2022-11-04T09:50:59.488Z,99400.00
2022-11-04T09:52:01.051Z,99404.34
2022-11-04T09:53:06.898Z,99393.66
2022-11-04T09:54:11.014Z,99389.09
2022-11-04T09:55:23.392Z,99393.03
2022-11-04T09:56:26.020Z,99387.44
2022-11-04T09:57:27.700Z,99387.44
2022-11-04T09:58:30.150Z,99385.03
2022-11-04T09:59:34.315Z,99393.13
2022-11-04T10:00:36.036Z,99395.03
2022-11-04T10:01:50.828Z,99405.09
2022-11-04T10:02:52.975Z,99398.03
2022-11-04T10:04:03.630Z,99401.53
2022-11-04T10:05:05.356Z,99399.47
2022-11-04T10:06:06.910Z,99398.19
2022-11-04T10:07:27.654Z,99397.88
2022-11-04T10:08:41.526Z,99414.66
2022-11-04T10:10:01.244Z,99413.81
2022-11-04T10:11:07.642Z,99413.59
2022-11-04T10:12:12.919Z,99422.84
2022-11-04T10:13:20.187Z,99415.38
2022-11-04T10:14:21.769Z,99418.19
2022-11-04T10:15:29.506Z,99420.47
2022-11-04T10:16:31.140Z,99422.75
2022-11-04T10:17:35.261Z,99421.09
2022-11-04T10:18:39.976Z,99422.13
2022-11-04T10:19:47.402Z,99417.16
2022-11-04T10:20:50.782Z,99426.09
2022-11-04T10:21:58.712Z,99423.28
2022-11-04T10:23:07.772Z,99410.72
2022-11-04T10:24:15.478Z,99411.94
2022-11-04T10:25:21.369Z,99411.13
2022-11-04T10:26:28.870Z,99409.97
2022-11-04T10:27:31.814Z,99419.03
2022-11-04T10:28:36.114Z,99413.41
2022-11-04T10:29:38.339Z,99413.09
2022-11-04T10:30:40.080Z,99418.38
2022-11-04T10:31:41.536Z,99411.63
2022-11-04T10:32:53.028Z,99403.22
2022-11-04T10:33:55.365Z,99404.34
2022-11-04T10:35:01.220Z,99407.69
2022-11-04T10:36:09.325Z,99399.25
2022-11-04T10:37:10.945Z,99400.31
2022-11-04T10:38:12.521Z,99397.38
2022-11-04T10:39:18.304Z,99401.53
2022-11-04T10:40:25.453Z,99402.88
2022-11-04T10:41:27.002Z,99397.81
2022-11-04T10:42:28.593Z,99393.84
2022-11-04T10:43:34.269Z,99389.59
2022-11-04T10:44:36.007Z,99392.38
2022-11-04T10:45:40.541Z,99390.72
2022-11-04T10:46:44.810Z,99386.34
2022-11-04T10:47:56.873Z,99384.38
2022-11-04T10:49:03.533Z,99381.81
2022-11-04T10:50:31.420Z,99386.78
2022-11-04T10:51:33.340Z,99386.97
2022-11-04T10:52:36.297Z,99384.66
2022-11-04T10:53:37.875Z,99385.22
2022-11-04T10:54:57.718Z,99394.13
2022-11-04T10:55:59.298Z,99385.09
2022-11-04T10:57:00.898Z,99382.59
2022-11-04T10:58:02.806Z,99389.03
2022-11-04T10:59:24.885Z,99388.72
2022-11-04T11:00:52.819Z,99393.19
2022-11-04T11:01:58.401Z,99391.34
2022-11-04T11:03:00.141Z,99396.94
2022-11-04T11:04:02.030Z,99390.50
2022-11-04T11:05:18.829Z,99395.28
2022-11-04T11:06:22.819Z,99386.88
2022-11-04T11:07:24.401Z,99385.72
2022-11-04T11:08:33.069Z,99380.19
2022-11-04T11:09:34.650Z,99390.28
2022-11-04T11:10:36.197Z,99384.34
2022-11-04T11:11:39.218Z,99386.88
2022-11-04T11:12:52.042Z,99386.22
2022-11-04T11:13:53.821Z,99383.44
2022-11-04T11:14:55.358Z,99384.25
2022-11-04T11:16:16.148Z,99387.88
2022-11-04T11:17:19.284Z,99381.75
2022-11-04T11:18:28.633Z,99382.28
2022-11-04T11:19:32.999Z,99385.59
2022-11-04T11:20:37.762Z,99386.75
2022-11-04T11:21:42.564Z,99388.00
2022-11-04T11:22:44.621Z,99384.06
2022-11-04T11:23:51.149Z,99383.44
2022-11-04T11:24:52.642Z,99386.75
2022-11-04T11:25:54.138Z,99386.13
2022-11-04T11:26:56.686Z,99388.63
2022-11-04T11:28:07.910Z,99386.34
2022-11-04T11:29:10.742Z,99388.19
2022-11-04T11:30:42.003Z,99387.56
2022-11-04T11:31:43.548Z,99381.63
2022-11-04T11:32:45.014Z,99376.50
2022-11-04T11:33:48.179Z,99385.47
2022-11-04T11:34:49.705Z,99378.19
2022-11-04T11:35:51.986Z,99382.97
2022-11-04T11:36:54.386Z,99379.13
2022-11-04T11:37:55.908Z,99378.63
2022-11-04T11:39:01.330Z,99375.19
2022-11-04T11:40:02.867Z,99385.47
2022-11-04T11:41:29.235Z,99382.34
2022-11-04T11:42:30.747Z,99378.91
2022-11-04T11:43:32.800Z,99375.06
2022-11-04T11:44:52.922Z,99380.69
2022-11-04T11:45:55.093Z,99380.38
2022-11-04T11:46:56.786Z,99376.09
2022-11-04T11:47:58.594Z,99381.72
2022-11-04T11:49:03.723Z,99384.66
2022-11-04T11:50:26.072Z,99383.59
2022-11-04T11:51:34.445Z,99377.63
2022-11-04T11:52:38.150Z,99391.75
2022-11-04T11:53:45.908Z,99393.94
2022-11-04T11:54:47.651Z,99382.28
2022-11-04T11:56:09.703Z,99384.34
2022-11-04T11:57:25.501Z,99380.28
2022-11-04T12:01:35.546Z,99383.44
2022-11-04T12:02:46.488Z,99380.09
2022-11-04T12:09:46.865Z,99381.31
2022-11-04T12:10:52.215Z,99379.03
2022-11-04T12:12:13.190Z,99380.88
2022-11-04T12:13:23.545Z,99376.91
2022-11-04T12:14:29.067Z,99373.78
2022-11-04T12:15:49.586Z,99375.97
2022-11-04T12:16:51.212Z,99375.63
2022-11-04T12:18:11.387Z,99367.75
2022-11-04T12:19:21.884Z,99379.81
2022-11-04T12:20:43.823Z,99371.06
2022-11-04T12:21:47.380Z,99368.75
2022-11-04T12:22:55.000Z,99365.63
2022-11-04T12:24:01.214Z,99368.13
2022-11-04T12:25:08.556Z,99372.91
2022-11-04T12:26:11.150Z,99366.13
2022-11-04T12:27:22.163Z,99368.63
2022-11-04T12:28:36.542Z,99369.44
2022-11-04T12:29:40.640Z,99366.34
2022-11-04T12:30:54.382Z,99366.63
2022-11-04T12:32:02.146Z,99369.97
2022-11-04T12:33:12.520Z,99374.44
2022-11-04T12:34:20.330Z,99369.34
2022-11-04T12:35:40.565Z,99373.47
2022-11-04T12:36:46.517Z,99368.38
2022-11-04T12:38:03.405Z,99365.22
2022-11-04T12:39:14.553Z,99365.22
2022-11-04T12:40:16.045Z,99367.44
2022-11-04T12:42:06.344Z,99365.75
2022-11-04T12:43:12.328Z,99362.31
2022-11-04T12:44:23.797Z,99366.78
2022-11-04T12:45:46.859Z,99366.47
2022-11-04T12:47:00.786Z,99362.16
2022-11-04T12:48:04.727Z,99363.81
2022-11-04T12:49:08.902Z,99367.13
2022-11-04T12:50:22.618Z,99362.88
2022-11-04T12:51:24.070Z,99364.22
2022-11-04T12:52:40.777Z,99359.09
2022-11-04T12:53:51.188Z,99367.72
2022-11-04T12:54:58.870Z,99363.41